Time;durP1;ratioP1;P1;durP2;ratioP2;P2;SDS_P1;SDS_P2;PMS_P1;PMS_P2;Temp;Humidity;BMP_temperature;BMP_pressure;BME280_temperature;BME280_humidity;BME280_pressure;Samples;Min_cycle;Max_cycle;Signal;HPM_P1;HPM_P2
2022/01/06 00:00:57;;;;;;;3.88;2.40;;;;;;;;;;5041916;28;20223;-46
2022/01/06 00:03:23;;;;;;;4.63;2.50;;;;;;;;;;5037010;28;20199;-47
2022/01/06 00:05:49;;;;;;;3.50;2.28;;;;;;;;;;5037116;28;20183;-46
2022/01/06 00:08:15;;;;;;;3.60;2.45;;;;;;;;;;5041726;28;20358;-46
2022/01/06 00:10:41;;;;;;;3.08;2.10;;;;;;;;;;5041702;28;20257;-46
2022/01/06 00:13:12;;;;;;;3.38;2.40;;;;;;;;;;5030036;28;20441;-46
2022/01/06 00:23:38;;;;;;;2.30;2.10;;;;;;;;;;5036636;28;20250;-46
2022/01/06 00:26:04;;;;;;;3.30;2.10;;;;;;;;;;5041839;28;20164;-46
2022/01/06 00:28:30;;;;;;;2.78;2.10;;;;;;;;;;5037345;28;20192;-46
2022/01/06 00:30:57;;;;;;;3.20;2.03;;;;;;;;;;5043387;28;20197;-46
2022/01/06 00:33:23;;;;;;;3.13;2.05;;;;;;;;;;5038148;28;20264;-46
2022/01/06 00:35:49;;;;;;;3.42;2.28;;;;;;;;;;5044273;28;20210;-46
2022/01/06 00:38:15;;;;;;;3.60;1.88;;;;;;;;;;5041036;28;20565;-46
2022/01/06 00:40:41;;;;;;;3.13;2.08;;;;;;;;;;5041800;28;20187;-46
2022/01/06 00:43:08;;;;;;;2.03;1.60;;;;;;;;;;5040225;28;20499;-46
2022/01/06 00:45:36;;;;;;;2.03;1.73;;;;;;;;;;5041113;28;20559;-46
2022/01/06 00:48:02;;;;;;;2.70;1.80;;;;;;;;;;5029374;28;20175;-46
2022/01/06 00:50:28;;;;;;;2.38;1.80;;;;;;;;;;5035540;28;20278;-46
2022/01/06 00:52:54;;;;;;;2.78;1.75;;;;;;;;;;5038121;28;20192;-46
2022/01/06 00:55:20;;;;;;;2.47;1.80;;;;;;;;;;5029326;28;20185;-46
2022/01/06 00:57:46;;;;;;;3.38;1.90;;;;;;;;;;5040787;28;20452;-46
2022/01/06 01:00:12;;;;;;;2.40;1.88;;;;;;;;;;5043677;28;20228;-46
2022/01/06 01:02:38;;;;;;;2.35;1.85;;;;;;;;;;5038568;28;20227;-46
2022/01/06 01:05:05;;;;;;;1.83;1.50;;;;;;;;;;5036903;28;20175;-46
2022/01/06 01:07:31;;;;;;;3.28;2.33;;;;;;;;;;5029638;28;20624;-46
2022/01/06 01:09:57;;;;;;;2.95;1.70;;;;;;;;;;5037389;28;20184;-46
2022/01/06 01:12:25;;;;;;;1.98;1.70;;;;;;;;;;5037261;28;20681;-46
2022/01/06 01:15:05;;;;;;;1.75;1.40;;;;;;;;;;5039685;28;20203;-46
2022/01/06 01:17:31;;;;;;;2.33;1.45;;;;;;;;;;5048729;28;20205;-46
2022/01/06 01:19:57;;;;;;;2.72;1.73;;;;;;;;;;5037284;28;20189;-46
2022/01/06 01:22:23;;;;;;;2.30;1.42;;;;;;;;;;5052758;28;20233;-46
2022/01/06 01:24:49;;;;;;;1.50;1.40;;;;;;;;;;5039130;28;20183;-46
2022/01/06 01:27:20;;;;;;;2.75;1.95;;;;;;;;;;5027129;28;20212;-46
2022/01/06 01:29:58;;;;;;;1.85;1.60;;;;;;;;;;5013830;28;20235;-46
2022/01/06 01:32:32;;;;;;;1.70;1.60;;;;;;;;;;5013249;28;20234;-46
2022/01/06 01:35:01;;;;;;;3.53;1.77;;;;;;;;;;5032449;28;20770;-46
2022/01/06 01:37:30;;;;;;;2.10;1.42;;;;;;;;;;5042087;28;20581;-46
2022/01/06 01:39:56;;;;;;;2.35;1.38;;;;;;;;;;5039627;28;20187;-46
2022/01/06 01:42:23;;;;;;;2.05;1.50;;;;;;;;;;5035887;28;20208;-46
2022/01/06 01:44:51;;;;;;;2.83;1.80;;;;;;;;;;5040135;28;20195;-46
2022/01/06 01:47:27;;;;;;;1.50;1.40;;;;;;;;;;5025212;28;20167;-46
2022/01/06 01:49:58;;;;;;;3.58;1.50;;;;;;;;;;5037103;28;20229;-46
2022/01/06 01:52:24;;;;;;;2.85;1.27;;;;;;;;;;5042035;28;20212;-46
2022/01/06 01:54:50;;;;;;;1.42;1.30;;;;;;;;;;5042605;28;20502;-46
2022/01/06 01:57:16;;;;;;;1.73;1.33;;;;;;;;;;5043201;28;20248;-46
2022/01/06 01:59:42;;;;;;;1.23;1.10;;;;;;;;;;5033823;28;20271;-46
2022/01/06 02:02:08;;;;;;;1.83;1.05;;;;;;;;;;5034047;28;20222;-46
2022/01/06 02:04:34;;;;;;;1.05;0.98;;;;;;;;;;5042593;28;20561;-46
2022/01/06 02:07:00;;;;;;;1.70;1.30;;;;;;;;;;5052829;28;20167;-46
2022/01/06 02:09:26;;;;;;;1.45;1.13;;;;;;;;;;5038330;28;20283;-46
2022/01/06 02:11:53;;;;;;;1.30;1.20;;;;;;;;;;5040680;28;20237;-46
2022/01/06 02:14:19;;;;;;;1.30;1.20;;;;;;;;;;5036578;28;20179;-46
2022/01/06 02:16:45;;;;;;;1.73;1.30;;;;;;;;;;5036871;28;20194;-46
2022/01/06 02:19:11;;;;;;;2.05;1.38;;;;;;;;;;5043154;28;20179;-46
2022/01/06 02:21:40;;;;;;;1.42;1.05;;;;;;;;;;5044647;28;20192;-46
2022/01/06 02:24:07;;;;;;;1.20;1.10;;;;;;;;;;5047505;28;20180;-46
2022/01/06 02:26:32;;;;;;;1.80;1.20;;;;;;;;;;5039265;28;20550;-46
2022/01/06 02:28:58;;;;;;;1.63;1.30;;;;;;;;;;5033991;28;20233;-46
2022/01/06 02:31:26;;;;;;;2.05;1.17;;;;;;;;;;5042632;28;20550;-46
2022/01/06 02:33:52;;;;;;;1.58;1.02;;;;;;;;;;5038084;28;20193;-46
2022/01/06 02:36:19;;;;;;;1.73;1.20;;;;;;;;;;5049858;28;20213;-46
2022/01/06 02:38:45;;;;;;;1.40;1.13;;;;;;;;;;5045547;28;20187;-46
2022/01/06 02:41:12;;;;;;;1.23;1.02;;;;;;;;;;5029014;28;20496;-47
2022/01/06 02:43:38;;;;;;;1.90;1.10;;;;;;;;;;5040341;28;20171;-46
2022/01/06 02:46:04;;;;;;;1.20;1.00;;;;;;;;;;5047885;28;20437;-46
2022/01/06 02:48:31;;;;;;;1.25;1.15;;;;;;;;;;5036715;28;20185;-46
2022/01/06 02:50:57;;;;;;;1.58;1.08;;;;;;;;;;5041637;28;20258;-46
2022/01/06 02:53:23;;;;;;;1.75;1.20;;;;;;;;;;5039357;28;20183;-46
2022/01/06 02:55:50;;;;;;;1.10;0.90;;;;;;;;;;5029060;28;20469;-46
2022/01/06 02:58:17;;;;;;;0.70;0.70;;;;;;;;;;5045094;28;20265;-46
2022/01/06 03:00:43;;;;;;;0.80;0.80;;;;;;;;;;5032850;28;20208;-46
2022/01/06 03:03:09;;;;;;;1.20;0.98;;;;;;;;;;5044039;28;20194;-46
2022/01/06 03:05:35;;;;;;;1.00;0.90;;;;;;;;;;5046554;28;20183;-46
2022/01/06 03:08:01;;;;;;;1.80;1.05;;;;;;;;;;5042535;28;20431;-46
2022/01/06 03:10:28;;;;;;;1.58;1.08;;;;;;;;;;5042783;28;20184;-46
2022/01/06 03:12:54;;;;;;;0.90;0.90;;;;;;;;;;5043291;28;20212;-46
2022/01/06 03:15:21;;;;;;;1.00;0.90;;;;;;;;;;5046433;28;20589;-47
2022/01/06 03:17:48;;;;;;;0.77;0.73;;;;;;;;;;5043222;28;20207;-46
2022/01/06 03:20:15;;;;;;;1.25;0.90;;;;;;;;;;5040571;28;20188;-46
2022/01/06 03:22:41;;;;;;;1.33;1.10;;;;;;;;;;5035103;28;20297;-46
2022/01/06 03:25:07;;;;;;;1.42;0.98;;;;;;;;;;5043861;28;20318;-46
2022/01/06 03:27:34;;;;;;;1.17;1.00;;;;;;;;;;5050354;28;20199;-46
2022/01/06 03:30:00;;;;;;;1.42;1.00;;;;;;;;;;5040700;28;20220;-46
2022/01/06 03:32:26;;;;;;;1.80;1.08;;;;;;;;;;5033552;28;20238;-46
2022/01/06 03:34:52;;;;;;;1.52;1.00;;;;;;;;;;5043860;28;20191;-46
2022/01/06 03:37:18;;;;;;;1.65;1.00;;;;;;;;;;5032585;28;20184;-46
2022/01/06 03:39:44;;;;;;;1.13;1.02;;;;;;;;;;5044068;28;20187;-46
2022/01/06 03:42:11;;;;;;;1.00;0.80;;;;;;;;;;5040894;28;20207;-46
2022/01/06 03:44:38;;;;;;;1.00;0.90;;;;;;;;;;5042630;28;20483;-46
2022/01/06 03:47:05;;;;;;;1.40;0.85;;;;;;;;;;5033460;28;20179;-46
2022/01/06 03:49:32;;;;;;;1.00;0.90;;;;;;;;;;5039840;28;20570;-46
2022/01/06 03:51:58;;;;;;;1.42;1.00;;;;;;;;;;5040559;28;20218;-47
2022/01/06 03:54:24;;;;;;;1.00;0.90;;;;;;;;;;5040977;28;20211;-46
2022/01/06 03:56:50;;;;;;;1.25;0.95;;;;;;;;;;5046224;28;20559;-46
2022/01/06 03:59:17;;;;;;;2.97;0.93;;;;;;;;;;5042447;28;20182;-46
2022/01/06 04:01:44;;;;;;;1.98;0.95;;;;;;;;;;5037311;28;20294;-46
2022/01/06 04:04:10;;;;;;;0.70;0.70;;;;;;;;;;5040668;28;20218;-46
2022/01/06 04:06:36;;;;;;;0.85;0.70;;;;;;;;;;5041783;28;20497;-46
2022/01/06 04:09:03;;;;;;;1.45;0.90;;;;;;;;;;5036038;28;20196;-46
2022/01/06 04:11:29;;;;;;;1.58;0.85;;;;;;;;;;5034874;28;20187;-46
2022/01/06 04:13:55;;;;;;;0.93;0.90;;;;;;;;;;5039778;28;20241;-46
2022/01/06 04:16:21;;;;;;;0.98;0.75;;;;;;;;;;5029430;28;20187;-46
2022/01/06 04:18:47;;;;;;;2.35;0.77;;;;;;;;;;5032323;28;20202;-46
2022/01/06 04:21:13;;;;;;;1.02;0.73;;;;;;;;;;5042662;28;20214;-46
2022/01/06 04:23:39;;;;;;;0.65;0.63;;;;;;;;;;5040868;28;20563;-46
2022/01/06 04:26:06;;;;;;;0.75;0.70;;;;;;;;;;5045502;28;20190;-46
2022/01/06 04:28:32;;;;;;;1.05;0.90;;;;;;;;;;5050018;28;20178;-46
2022/01/06 04:30:58;;;;;;;1.13;0.80;;;;;;;;;;5037944;28;20659;-46
2022/01/06 04:33:24;;;;;;;0.77;0.75;;;;;;;;;;5042739;28;20456;-46
2022/01/06 04:35:49;;;;;;;1.40;0.98;;;;;;;;;;5037119;28;20199;-46
2022/01/06 04:38:15;;;;;;;1.13;0.70;;;;;;;;;;5024350;28;20879;-46
2022/01/06 04:40:41;;;;;;;1.23;0.88;;;;;;;;;;5033502;28;20184;-46
2022/01/06 04:43:07;;;;;;;1.17;0.90;;;;;;;;;;5043660;28;20570;-46
2022/01/06 04:45:34;;;;;;;0.68;0.63;;;;;;;;;;5040476;28;20218;-46
2022/01/06 04:48:00;;;;;;;1.00;0.80;;;;;;;;;;5038043;28;20190;-46
2022/01/06 04:50:26;;;;;;;2.35;0.90;;;;;;;;;;5038067;28;20199;-46
2022/01/06 04:52:52;;;;;;;2.05;0.70;;;;;;;;;;5043617;28;20212;-46
2022/01/06 04:55:18;;;;;;;2.47;0.90;;;;;;;;;;5043203;28;20453;-46
2022/01/06 04:57:44;;;;;;;1.33;0.70;;;;;;;;;;5036512;28;20191;-47
2022/01/06 05:00:10;;;;;;;1.45;0.60;;;;;;;;;;5038875;28;20194;-46
2022/01/06 05:02:36;;;;;;;1.38;0.75;;;;;;;;;;5034024;28;20222;-46
2022/01/06 05:05:03;;;;;;;1.10;0.70;;;;;;;;;;5039102;28;20214;-46
2022/01/06 05:07:29;;;;;;;1.33;0.82;;;;;;;;;;5041844;28;20183;-47
2022/01/06 05:09:54;;;;;;;4.13;1.00;;;;;;;;;;5036468;28;20190;-46
2022/01/06 05:12:21;;;;;;;5.95;1.77;;;;;;;;;;5040077;28;20193;-46
2022/01/06 05:14:48;;;;;;;11.13;2.83;;;;;;;;;;5039038;28;20610;-47
2022/01/06 05:17:14;;;;;;;14.60;4.35;;;;;;;;;;5029010;28;20262;-47
2022/01/06 05:19:40;;;;;;;21.88;5.22;;;;;;;;;;5045688;28;20261;-47
2022/01/06 05:22:05;;;;;;;24.83;5.90;;;;;;;;;;5040196;28;20564;-46
2022/01/06 05:24:33;;;;;;;29.58;6.55;;;;;;;;;;5044586;28;20183;-46
2022/01/06 05:26:59;;;;;;;26.05;6.57;;;;;;;;;;5039174;28;20615;-46
2022/01/06 05:29:25;;;;;;;23.88;6.68;;;;;;;;;;5043853;28;20485;-46
2022/01/06 05:31:51;;;;;;;29.30;7.97;;;;;;;;;;5023480;28;20185;-46
2022/01/06 05:34:17;;;;;;;30.77;7.43;;;;;;;;;;5044010;28;20195;-46
2022/01/06 05:36:43;;;;;;;29.60;7.93;;;;;;;;;;5041944;28;20325;-46
2022/01/06 05:39:09;;;;;;;28.02;7.57;;;;;;;;;;5037127;28;20183;-46
2022/01/06 05:41:35;;;;;;;30.70;7.65;;;;;;;;;;5040851;28;20214;-47
2022/01/06 05:44:02;;;;;;;28.30;7.70;;;;;;;;;;5033113;28;20527;-47
2022/01/06 05:46:28;;;;;;;27.83;8.02;;;;;;;;;;5035722;28;20212;-46
2022/01/06 05:48:54;;;;;;;24.33;7.30;;;;;;;;;;5045111;28;20558;-46
2022/01/06 05:51:20;;;;;;;27.73;8.25;;;;;;;;;;5039788;28;20197;-46
2022/01/06 05:53:46;;;;;;;29.42;7.78;;;;;;;;;;5041753;28;20184;-46
2022/01/06 05:56:12;;;;;;;27.88;7.35;;;;;;;;;;5044664;28;20641;-46
2022/01/06 05:58:40;;;;;;;24.08;6.88;;;;;;;;;;5037521;28;20283;-46
2022/01/06 06:01:07;;;;;;;28.05;7.88;;;;;;;;;;5048116;28;20577;-46
2022/01/06 06:03:33;;;;;;;21.17;6.55;;;;;;;;;;5043445;28;20565;-46
2022/01/06 06:05:59;;;;;;;26.38;6.90;;;;;;;;;;5034015;28;20197;-46
2022/01/06 06:08:25;;;;;;;23.25;6.80;;;;;;;;;;5056130;28;20262;-46
2022/01/06 06:10:51;;;;;;;19.75;6.53;;;;;;;;;;5044935;28;20179;-46
2022/01/06 06:13:16;;;;;;;20.38;5.80;;;;;;;;;;5049142;28;20258;-46
2022/01/06 06:15:42;;;;;;;22.33;6.40;;;;;;;;;;5038033;28;20501;-46
2022/01/06 06:18:12;;;;;;;20.08;6.10;;;;;;;;;;5043095;28;20212;-46
2022/01/06 06:20:38;;;;;;;17.58;5.82;;;;;;;;;;5034133;28;20425;-46
2022/01/06 06:23:05;;;;;;;18.05;5.82;;;;;;;;;;5048070;28;20202;-46
2022/01/06 06:25:31;;;;;;;15.57;5.35;;;;;;;;;;5044632;28;20215;-46
2022/01/06 06:27:57;;;;;;;17.95;5.95;;;;;;;;;;5038642;28;20183;-46
2022/01/06 06:30:23;;;;;;;14.07;5.22;;;;;;;;;;5033791;28;20180;-46
2022/01/06 06:32:49;;;;;;;19.48;5.10;;;;;;;;;;5035373;28;20525;-46
2022/01/06 06:35:16;;;;;;;21.38;5.43;;;;;;;;;;5046362;28;20253;-46
2022/01/06 06:37:41;;;;;;;15.18;5.68;;;;;;;;;;5046537;28;20186;-46
2022/01/06 06:40:08;;;;;;;14.00;5.15;;;;;;;;;;5028929;28;20186;-47
2022/01/06 06:42:34;;;;;;;16.27;4.78;;;;;;;;;;5042650;28;20219;-47
2022/01/06 06:45:00;;;;;;;14.40;4.68;;;;;;;;;;5031067;28;20262;-46
2022/01/06 06:47:26;;;;;;;12.95;4.90;;;;;;;;;;5039118;28;20257;-46
2022/01/06 06:49:55;;;;;;;15.68;4.45;;;;;;;;;;5043515;28;20214;-46
2022/01/06 06:52:21;;;;;;;14.55;4.15;;;;;;;;;;5041113;28;20175;-47
2022/01/06 06:54:48;;;;;;;12.20;3.83;;;;;;;;;;5049144;28;20186;-46
2022/01/06 06:57:14;;;;;;;9.57;3.95;;;;;;;;;;5038906;28;20270;-46
2022/01/06 06:59:40;;;;;;;9.38;4.07;;;;;;;;;;5040395;28;20187;-46
2022/01/06 07:02:06;;;;;;;12.30;4.00;;;;;;;;;;5038100;28;20594;-46
2022/01/06 07:04:32;;;;;;;12.20;4.30;;;;;;;;;;5031469;28;20177;-46
2022/01/06 07:06:58;;;;;;;15.82;4.22;;;;;;;;;;5051197;28;20557;-46
2022/01/06 07:09:24;;;;;;;12.30;4.65;;;;;;;;;;5053293;28;20187;-46
2022/01/06 07:11:50;;;;;;;11.18;4.13;;;;;;;;;;5036012;28;20601;-47
2022/01/06 07:14:16;;;;;;;11.80;4.35;;;;;;;;;;5036918;28;20254;-47
2022/01/06 07:16:42;;;;;;;11.95;4.05;;;;;;;;;;5036712;28;20185;-46
2022/01/06 07:19:08;;;;;;;11.90;3.33;;;;;;;;;;5038263;28;20191;-47
2022/01/06 07:21:34;;;;;;;9.82;3.45;;;;;;;;;;5047008;28;20496;-47
2022/01/06 07:24:00;;;;;;;9.80;3.55;;;;;;;;;;5045822;28;20188;-47
2022/01/06 07:26:26;;;;;;;8.90;3.13;;;;;;;;;;5037168;28;20211;-47
2022/01/06 07:28:52;;;;;;;10.75;3.97;;;;;;;;;;5028187;28;20555;-47
2022/01/06 07:31:18;;;;;;;10.90;3.75;;;;;;;;;;5035345;28;20287;-47
2022/01/06 07:33:44;;;;;;;10.32;3.55;;;;;;;;;;5034169;28;20191;-47
2022/01/06 07:36:10;;;;;;;10.60;3.70;;;;;;;;;;5030656;28;20210;-47
2022/01/06 07:38:36;;;;;;;7.97;3.15;;;;;;;;;;5047473;28;20217;-47
2022/01/06 07:41:02;;;;;;;8.02;2.88;;;;;;;;;;5036145;28;20534;-47
2022/01/06 07:43:27;;;;;;;7.60;3.08;;;;;;;;;;5041705;28;20244;-47
2022/01/06 07:45:53;;;;;;;7.35;3.03;;;;;;;;;;5040030;28;20193;-46
2022/01/06 07:48:26;;;;;;;8.80;3.20;;;;;;;;;;5034604;28;20810;-47
2022/01/06 07:50:52;;;;;;;6.57;2.92;;;;;;;;;;5043251;28;20176;-47
2022/01/06 07:53:18;;;;;;;5.97;2.90;;;;;;;;;;5037795;28;20202;-47
2022/01/06 07:55:44;;;;;;;6.68;2.95;;;;;;;;;;5043332;28;20242;-47
2022/01/06 07:58:10;;;;;;;7.47;2.90;;;;;;;;;;5034181;28;20571;-46
2022/01/06 08:00:36;;;;;;;7.05;2.92;;;;;;;;;;5039243;28;20210;-46
2022/01/06 08:03:02;;;;;;;6.25;2.45;;;;;;;;;;5042404;28;20284;-47
2022/01/06 08:05:29;;;;;;;7.28;2.65;;;;;;;;;;5038941;28;20179;-47
2022/01/06 08:07:55;;;;;;;7.78;2.80;;;;;;;;;;5045753;28;20179;-47
2022/01/06 08:10:21;;;;;;;6.05;2.75;;;;;;;;;;5043799;28;20237;-47
2022/01/06 08:12:47;;;;;;;6.00;2.78;;;;;;;;;;5035277;28;20789;-47
2022/01/06 08:15:17;;;;;;;7.10;2.80;;;;;;;;;;5037402;28;20183;-46
2022/01/06 08:17:43;;;;;;;6.32;2.60;;;;;;;;;;5038264;28;20214;-47
2022/01/06 08:20:10;;;;;;;7.63;2.67;;;;;;;;;;5035298;28;20175;-46
2022/01/06 08:22:36;;;;;;;7.57;2.83;;;;;;;;;;5032884;28;20258;-47
2022/01/06 08:25:06;;;;;;;6.53;2.55;;;;;;;;;;5040795;28;20196;-47
2022/01/06 08:27:32;;;;;;;8.65;2.95;;;;;;;;;;5040280;28;20186;-46
2022/01/06 08:29:58;;;;;;;11.25;3.05;;;;;;;;;;5038490;28;20183;-47
2022/01/06 08:32:24;;;;;;;5.45;2.83;;;;;;;;;;5039664;28;20195;-47
2022/01/06 08:34:50;;;;;;;8.55;2.92;;;;;;;;;;5041330;28;20239;-47
2022/01/06 08:37:17;;;;;;;10.50;3.15;;;;;;;;;;5039267;28;20503;-47
2022/01/06 08:39:43;;;;;;;6.70;2.67;;;;;;;;;;5031173;28;20211;-47
2022/01/06 08:42:09;;;;;;;8.50;2.85;;;;;;;;;;5036996;28;20619;-47
2022/01/06 08:44:39;;;;;;;6.80;2.92;;;;;;;;;;5038044;28;20238;-47
2022/01/06 08:47:05;;;;;;;6.88;2.70;;;;;;;;;;5046266;28;20462;-46
2022/01/06 08:49:31;;;;;;;13.10;2.80;;;;;;;;;;5044392;28;20194;-47
2022/01/06 08:51:57;;;;;;;8.35;2.63;;;;;;;;;;5038002;28;20175;-47
2022/01/06 08:54:23;;;;;;;8.05;2.97;;;;;;;;;;5035902;28;20193;-46
2022/01/06 08:56:49;;;;;;;6.65;2.92;;;;;;;;;;5041176;28;20195;-47
2022/01/06 08:59:15;;;;;;;8.73;2.90;;;;;;;;;;5032046;28;20188;-47
2022/01/06 09:01:41;;;;;;;6.00;2.53;;;;;;;;;;5039545;28;20282;-47
2022/01/06 09:04:07;;;;;;;7.20;2.70;;;;;;;;;;5038881;28;20207;-47
2022/01/06 09:06:33;;;;;;;6.50;2.40;;;;;;;;;;5042011;28;20285;-47
2022/01/06 09:08:59;;;;;;;5.93;2.72;;;;;;;;;;5018747;28;20588;-46
2022/01/06 09:11:25;;;;;;;5.68;2.22;;;;;;;;;;5025544;28;20187;-47
2022/01/06 09:13:51;;;;;;;6.28;2.33;;;;;;;;;;5045668;28;20284;-47
2022/01/06 09:16:17;;;;;;;6.07;2.03;;;;;;;;;;5036427;28;20203;-47
2022/01/06 09:18:43;;;;;;;6.95;2.63;;;;;;;;;;5037740;28;20454;-47
2022/01/06 09:21:09;;;;;;;7.13;2.25;;;;;;;;;;5040390;28;20190;-47
2022/01/06 09:23:36;;;;;;;7.75;2.55;;;;;;;;;;5042887;28;20558;-47
2022/01/06 09:26:02;;;;;;;6.45;2.53;;;;;;;;;;5037947;28;20444;-47
2022/01/06 09:28:28;;;;;;;5.45;2.55;;;;;;;;;;5036381;28;20188;-47
2022/01/06 09:30:55;;;;;;;4.88;2.33;;;;;;;;;;5041747;28;20198;-47
2022/01/06 09:33:22;;;;;;;6.80;2.58;;;;;;;;;;5033810;28;20287;-47
2022/01/06 09:35:48;;;;;;;4.40;2.38;;;;;;;;;;5039743;28;20187;-47
2022/01/06 09:38:14;;;;;;;6.90;2.72;;;;;;;;;;5044498;28;20175;-47
2022/01/06 09:40:42;;;;;;;5.78;2.90;;;;;;;;;;5038313;28;20194;-47
2022/01/06 09:43:08;;;;;;;5.05;2.30;;;;;;;;;;5041454;28;20605;-47
2022/01/06 09:45:35;;;;;;;3.60;2.00;;;;;;;;;;5036481;28;20208;-47
2022/01/06 09:48:01;;;;;;;4.00;1.95;;;;;;;;;;5033777;28;20171;-47
2022/01/06 09:50:27;;;;;;;4.72;1.92;;;;;;;;;;5041770;28;20175;-47
2022/01/06 09:52:54;;;;;;;4.25;2.15;;;;;;;;;;5035263;28;20416;-47
2022/01/06 09:55:21;;;;;;;4.60;2.20;;;;;;;;;;5040605;28;20167;-47
2022/01/06 09:57:58;;;;;;;4.28;2.03;;;;;;;;;;5043906;28;20715;-47
2022/01/06 10:00:24;;;;;;;4.63;2.20;;;;;;;;;;5028364;28;20192;-47
2022/01/06 10:02:54;;;;;;;7.15;2.63;;;;;;;;;;5032489;28;20208;-47
2022/01/06 10:05:20;;;;;;;7.00;3.40;;;;;;;;;;5024406;28;20208;-47
2022/01/06 10:07:46;;;;;;;7.57;3.58;;;;;;;;;;5016102;28;20223;-47
2022/01/06 10:10:13;;;;;;;6.55;3.40;;;;;;;;;;5050340;28;20206;-47
2022/01/06 10:12:40;;;;;;;11.63;5.07;;;;;;;;;;5039957;28;20184;-47
2022/01/06 10:15:20;;;;;;;8.55;5.18;;;;;;;;;;5038443;28;20179;-47
2022/01/06 10:17:46;;;;;;;12.52;5.68;;;;;;;;;;5041308;28;20248;-47
2022/01/06 10:20:20;;;;;;;11.25;5.57;;;;;;;;;;5032306;28;20203;-47
2022/01/06 10:22:50;;;;;;;17.85;6.53;;;;;;;;;;5046413;28;20203;-47
2022/01/06 10:25:17;;;;;;;12.55;6.10;;;;;;;;;;5051624;28;20225;-47
2022/01/06 10:27:45;;;;;;;13.82;6.90;;;;;;;;;;5052605;28;20217;-47
2022/01/06 10:30:12;;;;;;;13.30;6.78;;;;;;;;;;5037739;28;20176;-47
2022/01/06 10:32:39;;;;;;;14.02;7.05;;;;;;;;;;5030828;28;20183;-47
2022/01/06 10:35:05;;;;;;;13.60;6.40;;;;;;;;;;5031235;28;20191;-47
2022/01/06 10:37:50;;;;;;;21.30;7.60;;;;;;;;;;5032667;28;20630;-47
2022/01/06 10:40:19;;;;;;;15.77;7.20;;;;;;;;;;5027273;28;20176;-47
2022/01/06 10:42:46;;;;;;;18.23;7.63;;;;;;;;;;5025597;28;20199;-47
2022/01/06 10:45:17;;;;;;;19.35;7.50;;;;;;;;;;5034865;28;20168;-47
2022/01/06 10:47:45;;;;;;;14.35;7.05;;;;;;;;;;5039317;28;20175;-47
2022/01/06 10:50:13;;;;;;;13.70;7.13;;;;;;;;;;5035775;28;20165;-47
2022/01/06 10:52:41;;;;;;;17.60;7.38;;;;;;;;;;5033555;28;20256;-47
2022/01/06 10:55:11;;;;;;;13.45;7.35;;;;;;;;;;5025761;28;20202;-48
2022/01/06 10:57:37;;;;;;;17.52;7.65;;;;;;;;;;5038894;28;20250;-47
2022/01/06 11:00:04;;;;;;;13.98;6.70;;;;;;;;;;5039325;28;20444;-47
2022/01/06 11:02:30;;;;;;;15.90;7.30;;;;;;;;;;5053665;28;20301;-47
2022/01/06 11:04:56;;;;;;;12.95;6.65;;;;;;;;;;5015870;28;20263;-47
2022/01/06 11:07:22;;;;;;;13.48;6.97;;;;;;;;;;5016088;28;20168;-47
2022/01/06 11:09:49;;;;;;;14.27;7.75;;;;;;;;;;5028595;28;20187;-47
2022/01/06 11:12:29;;;;;;;13.95;7.35;;;;;;;;;;5026583;28;20575;-47
2022/01/06 11:14:55;;;;;;;14.52;6.88;;;;;;;;;;5015131;28;20255;-47
2022/01/06 11:17:23;;;;;;;14.52;7.15;;;;;;;;;;5019292;28;20411;-47
2022/01/06 11:19:49;;;;;;;14.85;6.72;;;;;;;;;;5022621;28;20245;-46
2022/01/06 11:22:17;;;;;;;18.25;7.28;;;;;;;;;;5025160;28;20207;-46
2022/01/06 11:24:53;;;;;;;14.07;6.32;;;;;;;;;;5020215;28;20222;-47
2022/01/06 11:27:29;;;;;;;13.98;7.05;;;;;;;;;;5035000;28;20262;-47
2022/01/06 11:29:55;;;;;;;13.27;6.60;;;;;;;;;;5033195;28;20255;-47
2022/01/06 11:32:22;;;;;;;14.38;6.43;;;;;;;;;;5019251;28;20180;-47
2022/01/06 11:35:00;;;;;;;12.45;5.93;;;;;;;;;;5031587;28;20511;-46
2022/01/06 11:37:37;;;;;;;12.23;5.65;;;;;;;;;;5034489;28;20176;-47
2022/01/06 11:40:04;;;;;;;11.65;5.70;;;;;;;;;;5017192;28;20192;-47
2022/01/06 11:42:30;;;;;;;15.15;6.15;;;;;;;;;;5030401;28;20207;-47
2022/01/06 11:44:58;;;;;;;12.38;5.43;;;;;;;;;;5015810;28;20191;-47
2022/01/06 11:47:32;;;;;;;12.75;6.15;;;;;;;;;;5029569;28;20274;-47
2022/01/06 11:50:13;;;;;;;10.85;5.50;;;;;;;;;;5014971;28;20208;-47
2022/01/06 11:52:59;;;;;;;9.75;5.40;;;;;;;;;;5016845;28;20200;-47
2022/01/06 11:55:30;;;;;;;13.38;5.40;;;;;;;;;;5022582;28;20257;-47
2022/01/06 11:58:07;;;;;;;12.00;5.07;;;;;;;;;;5024959;28;20192;-47
2022/01/06 12:00:35;;;;;;;11.23;4.95;;;;;;;;;;5034540;28;20183;-47
2022/01/06 12:03:05;;;;;;;10.15;5.55;;;;;;;;;;5027525;28;20196;-47
2022/01/06 12:05:45;;;;;;;13.98;5.57;;;;;;;;;;5020188;28;20195;-47
2022/01/06 12:08:12;;;;;;;12.63;5.70;;;;;;;;;;5017909;28;20758;-47
2022/01/06 12:10:47;;;;;;;12.48;5.20;;;;;;;;;;5032791;28;20282;-47
2022/01/06 12:13:14;;;;;;;12.60;5.00;;;;;;;;;;5037618;28;20187;-47
2022/01/06 12:15:47;;;;;;;11.25;5.47;;;;;;;;;;5025398;28;20211;-47
2022/01/06 12:18:17;;;;;;;10.10;4.90;;;;;;;;;;5028958;28;20188;-47
2022/01/06 12:20:45;;;;;;;12.90;4.95;;;;;;;;;;5040762;28;20191;-47
2022/01/06 12:23:11;;;;;;;11.35;5.07;;;;;;;;;;5037277;28;20202;-47
2022/01/06 12:25:37;;;;;;;8.77;4.55;;;;;;;;;;5036819;28;20172;-47
2022/01/06 12:28:03;;;;;;;9.15;4.78;;;;;;;;;;5030661;28;20608;-47
2022/01/06 12:30:34;;;;;;;8.10;4.80;;;;;;;;;;5038000;28;20187;-47
2022/01/06 12:33:02;;;;;;;12.57;4.95;;;;;;;;;;5033271;28;20552;-47
2022/01/06 12:35:35;;;;;;;13.02;4.97;;;;;;;;;;5033384;28;20176;-47
2022/01/06 12:38:01;;;;;;;10.07;5.15;;;;;;;;;;5032509;28;20180;-47
2022/01/06 12:40:34;;;;;;;9.05;5.03;;;;;;;;;;5033964;28;20164;-47
2022/01/06 12:43:00;;;;;;;8.73;4.65;;;;;;;;;;5032209;28;20341;-47
2022/01/06 12:45:26;;;;;;;8.10;4.50;;;;;;;;;;5034992;28;20270;-47
2022/01/06 12:47:52;;;;;;;10.15;4.55;;;;;;;;;;5042376;28;20601;-47
2022/01/06 12:50:18;;;;;;;7.63;4.47;;;;;;;;;;5047943;28;20274;-47
2022/01/06 12:52:47;;;;;;;9.15;4.75;;;;;;;;;;5036320;28;20191;-47
2022/01/06 12:55:14;;;;;;;8.07;4.13;;;;;;;;;;5043904;28;20267;-47
2022/01/06 12:57:40;;;;;;;8.07;4.60;;;;;;;;;;5041644;28;20195;-47
2022/01/06 13:00:10;;;;;;;5.90;4.20;;;;;;;;;;5030969;28;20192;-47
2022/01/06 13:02:36;;;;;;;6.95;3.72;;;;;;;;;;5045304;28;20320;-47
2022/01/06 13:05:03;;;;;;;8.25;4.35;;;;;;;;;;5045080;28;20185;-47
2022/01/06 13:07:29;;;;;;;8.38;4.30;;;;;;;;;;5045160;28;20605;-47
2022/01/06 13:09:57;;;;;;;12.27;4.35;;;;;;;;;;5042359;28;20176;-47
2022/01/06 13:12:24;;;;;;;8.40;4.22;;;;;;;;;;5037131;28;20449;-47
2022/01/06 13:14:53;;;;;;;7.03;4.05;;;;;;;;;;5042813;28;20613;-47
2022/01/06 13:17:29;;;;;;;6.53;3.97;;;;;;;;;;5036157;28;20208;-47
2022/01/06 13:20:02;;;;;;;7.35;3.63;;;;;;;;;;5040622;28;20179;-47
2022/01/06 13:22:46;;;;;;;7.30;4.13;;;;;;;;;;5031300;28;20294;-47
2022/01/06 13:25:13;;;;;;;8.93;4.00;;;;;;;;;;5034530;28;20254;-47
2022/01/06 13:27:39;;;;;;;8.98;4.38;;;;;;;;;;5040524;28;20241;-47
2022/01/06 13:30:07;;;;;;;6.95;3.80;;;;;;;;;;5034919;28;20187;-47
2022/01/06 13:32:33;;;;;;;7.38;4.38;;;;;;;;;;5020962;28;20180;-47
2022/01/06 13:35:10;;;;;;;4.85;3.45;;;;;;;;;;5030464;28;20187;-47
2022/01/06 13:37:37;;;;;;;5.15;3.60;;;;;;;;;;5035560;28;20270;-47
2022/01/06 13:40:05;;;;;;;9.95;4.05;;;;;;;;;;5040161;28;20187;-47
2022/01/06 13:42:32;;;;;;;6.97;3.75;;;;;;;;;;5039784;28;20226;-47
2022/01/06 13:45:20;;;;;;;5.90;3.60;;;;;;;;;;5040459;28;20180;-47
2022/01/06 13:52:59;;;;;;;8.20;3.70;;;;;;;;;;5033323;28;20631;-47
2022/01/06 13:55:25;;;;;;;6.75;4.03;;;;;;;;;;5035947;28;20221;-47
2022/01/06 13:57:51;;;;;;;5.72;3.40;;;;;;;;;;5034110;28;20202;-47
2022/01/06 14:00:18;;;;;;;5.25;3.58;;;;;;;;;;5033439;28;20179;-47
2022/01/06 14:02:44;;;;;;;5.82;3.50;;;;;;;;;;5033089;28;20215;-47
2022/01/06 14:05:11;;;;;;;6.28;3.22;;;;;;;;;;5039877;28;20176;-47
2022/01/06 14:07:37;;;;;;;4.68;3.28;;;;;;;;;;5043351;28;20192;-47
2022/01/06 14:10:05;;;;;;;8.90;3.70;;;;;;;;;;5036478;28;20180;-47
2022/01/06 14:12:31;;;;;;;6.65;3.20;;;;;;;;;;5039614;28;20957;-47
2022/01/06 14:14:57;;;;;;;5.32;3.40;;;;;;;;;;5044635;28;20197;-47
2022/01/06 14:17:23;;;;;;;6.80;3.65;;;;;;;;;;5039031;28;20294;-47
2022/01/06 14:19:49;;;;;;;7.38;3.78;;;;;;;;;;5034093;28;20184;-47
2022/01/06 14:22:15;;;;;;;7.22;3.50;;;;;;;;;;5038550;28;20218;-47
2022/01/06 14:24:42;;;;;;;9.85;3.53;;;;;;;;;;5043957;28;20179;-47
2022/01/06 14:27:08;;;;;;;7.25;3.20;;;;;;;;;;5039907;28;20283;-47
2022/01/06 14:29:34;;;;;;;6.97;3.40;;;;;;;;;;5047365;28;20249;-47
2022/01/06 14:32:00;;;;;;;7.25;3.92;;;;;;;;;;5033686;28;20267;-47
2022/01/06 14:34:26;;;;;;;11.05;3.60;;;;;;;;;;5044889;28;20187;-47
2022/01/06 14:36:52;;;;;;;8.38;3.28;;;;;;;;;;5040676;28;20230;-47
2022/01/06 14:39:18;;;;;;;8.10;3.40;;;;;;;;;;5041654;28;20184;-47
2022/01/06 14:41:44;;;;;;;9.93;3.10;;;;;;;;;;5020750;28;20215;-47
2022/01/06 14:44:10;;;;;;;9.77;3.30;;;;;;;;;;5043549;28;20195;-47
2022/01/06 14:46:36;;;;;;;7.78;3.30;;;;;;;;;;5035308;28;20238;-47
2022/01/06 14:49:03;;;;;;;4.55;2.80;;;;;;;;;;5047945;28;20697;-47
2022/01/06 14:51:30;;;;;;;4.20;2.80;;;;;;;;;;5051870;28;20184;-47